Time;durP1;ratioP1;P1;durP2;ratioP2;P2;SDS_P1;SDS_P2;PMS_P1;PMS_P2;Temp;Humidity;BMP_temperature;BMP_pressure;BME280_temperature;BME280_humidity;BME280_pressure;Samples;Min_cycle;Max_cycle;Signal;HPM_P1;HPM_P2
2020/06/28 00:00:42;;;;;;;3.4;3.1;;;;;;;17.16;70.50195;95215.14;;;;
2020/06/28 00:01:44;;;;;;;3.4;3.1;;;;;;;17.16;70.50195;95215.14;;;;
2020/06/28 00:02:45;;;;;;;3.4;3.1;;;;;;;17.16;70.50195;95215.14;;;;
2020/06/28 00:03:45;;;;;;;3.4;3.1;;;;;;;17.16;70.50195;95215.14;;;;
2020/06/28 00:04:46;;;;;;;3.4;3.1;;;;;;;17.16;70.50195;95215.14;;;;
2020/06/28 00:05:46;;;;;;;3.4;3.1;;;;;;;17.16;70.50195;95215.14;;;;
2020/06/28 00:06:48;;;;;;;3.4;3.1;;;;;;;17.16;70.50195;95215.14;;;;
2020/06/28 00:07:48;;;;;;;5;3.3;;;;;;;17;71.30273;95214.89;;;;
2020/06/28 00:08:49;;;;;;;5;3.3;;;;;;;17;71.30273;95214.89;;;;
2020/06/28 00:09:49;;;;;;;5;3.3;;;;;;;17;71.30273;95214.89;;;;
2020/06/28 00:10:50;;;;;;;5;3.3;;;;;;;17;71.30273;95214.89;;;;
2020/06/28 00:11:50;;;;;;;5;3.3;;;;;;;17;71.30273;95214.89;;;;
2020/06/28 00:12:51;;;;;;;5;3.3;;;;;;;17;71.30273;95214.89;;;;
2020/06/28 00:13:52;;;;;;;5;3.3;;;;;;;17;71.30273;95214.89;;;;
2020/06/28 00:14:53;;;;;;;5;3.3;;;;;;;17;71.30273;95214.89;;;;
2020/06/28 00:15:53;;;;;;;5;3.3;;;;;;;17;71.30273;95214.89;;;;
2020/06/28 00:16:54;;;;;;;5;3.3;;;;;;;17;71.30273;95214.89;;;;
2020/06/28 00:17:56;;;;;;;4;2.8;;;;;;;16.94;72.12012;95212.87;;;;
2020/06/28 00:18:57;;;;;;;4;2.8;;;;;;;16.94;72.12012;95212.87;;;;
2020/06/28 00:19:57;;;;;;;4;2.8;;;;;;;16.94;72.12012;95212.87;;;;
2020/06/28 00:20:58;;;;;;;4;2.8;;;;;;;16.94;72.12012;95212.87;;;;
2020/06/28 00:21:59;;;;;;;4;2.8;;;;;;;16.94;72.12012;95212.87;;;;
2020/06/28 00:23:00;;;;;;;4;2.8;;;;;;;16.94;72.12012;95212.87;;;;
2020/06/28 00:24:00;;;;;;;4;2.8;;;;;;;16.94;72.12012;95212.87;;;;
2020/06/28 00:25:00;;;;;;;4;2.8;;;;;;;16.94;72.12012;95212.87;;;;
2020/06/28 00:26:01;;;;;;;4;2.8;;;;;;;16.94;72.12012;95212.87;;;;
2020/06/28 00:27:02;;;;;;;4;2.8;;;;;;;16.94;72.12012;95212.87;;;;
2020/06/28 00:28:02;;;;;;;4;2.8;;;;;;;16.94;72.12012;95212.87;;;;
2020/06/28 00:29:03;;;;;;;3.4;3.1;;;;;;;16.82;72.5791;95210.44;;;;
2020/06/28 00:30:05;;;;;;;3.4;3.1;;;;;;;16.82;72.5791;95210.44;;;;
2020/06/28 00:31:09;;;;;;;3.4;3.1;;;;;;;16.82;72.5791;95210.44;;;;
2020/06/28 00:32:09;;;;;;;3.4;3.1;;;;;;;16.82;72.5791;95210.44;;;;
2020/06/28 00:33:10;;;;;;;3.4;3.1;;;;;;;16.82;72.5791;95210.44;;;;
2020/06/28 00:34:11;;;;;;;3.4;3.1;;;;;;;16.82;72.5791;95210.44;;;;
2020/06/28 00:35:11;;;;;;;3.4;3.1;;;;;;;16.82;72.5791;95210.44;;;;
2020/06/28 00:36:14;;;;;;;3.4;3.1;;;;;;;16.82;72.5791;95210.44;;;;
2020/06/28 00:37:17;;;;;;;3.4;3.1;;;;;;;16.82;72.5791;95210.44;;;;
2020/06/28 00:38:18;;;;;;;3.4;3.1;;;;;;;16.82;72.5791;95210.44;;;;
2020/06/28 00:39:18;;;;;;;4.700001;3.3;;;;;;;16.76;73.3623;95212.92;;;;
2020/06/28 00:40:19;;;;;;;4.700001;3.3;;;;;;;16.76;73.3623;95212.92;;;;
2020/06/28 00:41:20;;;;;;;4.700001;3.3;;;;;;;16.76;73.3623;95212.92;;;;
2020/06/28 00:42:20;;;;;;;4.700001;3.3;;;;;;;16.76;73.3623;95212.92;;;;
2020/06/28 00:43:21;;;;;;;4.700001;3.3;;;;;;;16.76;73.3623;95212.92;;;;
2020/06/28 00:44:21;;;;;;;4.700001;3.3;;;;;;;16.76;73.3623;95212.92;;;;
2020/06/28 00:45:22;;;;;;;4.700001;3.3;;;;;;;16.76;73.3623;95212.92;;;;
2020/06/28 00:46:22;;;;;;;4.700001;3.3;;;;;;;16.76;73.3623;95212.92;;;;
2020/06/28 00:47:23;;;;;;;4.700001;3.3;;;;;;;16.76;73.3623;95212.92;;;;
2020/06/28 00:48:23;;;;;;;4.700001;3.3;;;;;;;16.76;73.3623;95212.92;;;;
2020/06/28 00:49:24;;;;;;;4.700001;3.3;;;;;;;16.76;73.3623;95212.92;;;;
2020/06/28 00:50:24;;;;;;;3.35;3.05;;;;;;;16.64;73.97168;95210.06;;;;
2020/06/28 00:51:25;;;;;;;3.35;3.05;;;;;;;16.64;73.97168;95210.06;;;;
2020/06/28 00:52:25;;;;;;;3.35;3.05;;;;;;;16.64;73.97168;95210.06;;;;
2020/06/28 00:53:26;;;;;;;3.35;3.05;;;;;;;16.64;73.97168;95210.06;;;;
2020/06/28 00:54:27;;;;;;;3.35;3.05;;;;;;;16.64;73.97168;95210.06;;;;
2020/06/28 00:55:27;;;;;;;3.35;3.05;;;;;;;16.64;73.97168;95210.06;;;;
2020/06/28 00:56:28;;;;;;;3.35;3.05;;;;;;;16.64;73.97168;95210.06;;;;
2020/06/28 00:57:28;;;;;;;3.35;3.05;;;;;;;16.64;73.97168;95210.06;;;;
2020/06/28 00:58:29;;;;;;;3.35;3.05;;;;;;;16.64;73.97168;95210.06;;;;
2020/06/28 00:59:30;;;;;;;3.35;3.05;;;;;;;16.64;73.97168;95210.06;;;;
2020/06/28 01:00:30;;;;;;;3.55;3.2;;;;;;;16.59;74.74414;95211.03;;;;
2020/06/28 01:01:31;;;;;;;3.55;3.2;;;;;;;16.59;74.74414;95211.03;;;;
2020/06/28 01:02:32;;;;;;;3.55;3.2;;;;;;;16.59;74.74414;95211.03;;;;
2020/06/28 01:03:33;;;;;;;3.55;3.2;;;;;;;16.59;74.74414;95211.03;;;;
2020/06/28 01:04:33;;;;;;;3.55;3.2;;;;;;;16.59;74.74414;95211.03;;;;
2020/06/28 01:05:34;;;;;;;3.55;3.2;;;;;;;16.59;74.74414;95211.03;;;;
2020/06/28 01:06:35;;;;;;;3.55;3.2;;;;;;;16.59;74.74414;95211.03;;;;
2020/06/28 01:07:36;;;;;;;3.55;3.2;;;;;;;16.59;74.74414;95211.03;;;;
2020/06/28 01:08:37;;;;;;;3.55;3.2;;;;;;;16.59;74.74414;95211.03;;;;
2020/06/28 01:09:38;;;;;;;3.55;3.2;;;;;;;16.59;74.74414;95211.03;;;;
2020/06/28 01:10:38;;;;;;;3.55;3.2;;;;;;;16.59;74.74414;95211.03;;;;
2020/06/28 01:11:39;;;;;;;3.7;3.2;;;;;;;16.51;75.39258;95208.31;;;;
2020/06/28 01:12:39;;;;;;;3.7;3.2;;;;;;;16.51;75.39258;95208.31;;;;
2020/06/28 01:13:41;;;;;;;3.7;3.2;;;;;;;16.51;75.39258;95208.31;;;;
2020/06/28 01:14:41;;;;;;;3.7;3.2;;;;;;;16.51;75.39258;95208.31;;;;
2020/06/28 01:15:42;;;;;;;3.7;3.2;;;;;;;16.51;75.39258;95208.31;;;;
2020/06/28 01:16:42;;;;;;;3.7;3.2;;;;;;;16.51;75.39258;95208.31;;;;
2020/06/28 01:17:44;;;;;;;3.7;3.2;;;;;;;16.51;75.39258;95208.31;;;;
2020/06/28 01:18:44;;;;;;;3.7;3.2;;;;;;;16.51;75.39258;95208.31;;;;
2020/06/28 01:19:46;;;;;;;3.7;3.2;;;;;;;16.51;75.39258;95208.31;;;;
2020/06/28 01:20:47;;;;;;;3.7;3.2;;;;;;;16.51;75.39258;95208.31;;;;
2020/06/28 01:21:48;;;;;;;3.8;3;;;;;;;16.49;75.8125;95203.7;;;;
2020/06/28 01:22:49;;;;;;;3.8;3;;;;;;;16.49;75.8125;95203.7;;;;
2020/06/28 01:23:49;;;;;;;3.8;3;;;;;;;16.49;75.8125;95203.7;;;;
2020/06/28 01:24:50;;;;;;;3.8;3;;;;;;;16.49;75.8125;95203.7;;;;
2020/06/28 01:25:51;;;;;;;3.8;3;;;;;;;16.49;75.8125;95203.7;;;;
2020/06/28 01:26:52;;;;;;;3.8;3;;;;;;;16.49;75.8125;95203.7;;;;
2020/06/28 01:27:52;;;;;;;3.8;3;;;;;;;16.49;75.8125;95203.7;;;;
2020/06/28 01:28:53;;;;;;;3.8;3;;;;;;;16.49;75.8125;95203.7;;;;
2020/06/28 01:29:54;;;;;;;3.8;3;;;;;;;16.49;75.8125;95203.7;;;;
2020/06/28 01:30:55;;;;;;;3.8;3;;;;;;;16.49;75.8125;95203.7;;;;
2020/06/28 01:31:55;;;;;;;3.8;3;;;;;;;16.49;75.8125;95203.7;;;;
2020/06/28 01:32:56;;;;;;;4.2;2.9;;;;;;;16.42;76.53809;95193.56;;;;
2020/06/28 01:33:58;;;;;;;4.2;2.9;;;;;;;16.42;76.53809;95193.56;;;;
2020/06/28 01:34:58;;;;;;;4.2;2.9;;;;;;;16.42;76.53809;95193.56;;;;
2020/06/28 01:35:59;;;;;;;4.2;2.9;;;;;;;16.42;76.53809;95193.56;;;;
2020/06/28 01:37:00;;;;;;;4.2;2.9;;;;;;;16.42;76.53809;95193.56;;;;
2020/06/28 01:38:01;;;;;;;4.2;2.9;;;;;;;16.42;76.53809;95193.56;;;;
2020/06/28 01:39:02;;;;;;;4.2;2.9;;;;;;;16.42;76.53809;95193.56;;;;
2020/06/28 01:40:03;;;;;;;4.2;2.9;;;;;;;16.42;76.53809;95193.56;;;;
2020/06/28 01:41:06;;;;;;;4.2;2.9;;;;;;;16.42;76.53809;95193.56;;;;
2020/06/28 01:42:06;;;;;;;4.2;2.9;;;;;;;16.42;76.53809;95193.56;;;;
2020/06/28 01:43:07;;;;;;;4.3;3;;;;;;;16.42;76.90625;95195.9;;;;
2020/06/28 01:44:07;;;;;;;4.3;3;;;;;;;16.42;76.90625;95195.9;;;;
2020/06/28 01:45:09;;;;;;;4.3;3;;;;;;;16.42;76.90625;95195.9;;;;
2020/06/28 01:46:10;;;;;;;4.3;3;;;;;;;16.42;76.90625;95195.9;;;;
2020/06/28 01:47:10;;;;;;;4.3;3;;;;;;;16.42;76.90625;95195.9;;;;
2020/06/28 01:48:11;;;;;;;4.3;3;;;;;;;16.42;76.90625;95195.9;;;;
2020/06/28 01:49:11;;;;;;;4.3;3;;;;;;;16.42;76.90625;95195.9;;;;
2020/06/28 01:50:12;;;;;;;4.3;3;;;;;;;16.42;76.90625;95195.9;;;;
2020/06/28 01:51:12;;;;;;;4.3;3;;;;;;;16.42;76.90625;95195.9;;;;
2020/06/28 01:52:14;;;;;;;4.3;3;;;;;;;16.42;76.90625;95195.9;;;;
2020/06/28 01:53:16;;;;;;;4.3;3;;;;;;;16.42;76.90625;95195.9;;;;
2020/06/28 01:54:19;;;;;;;3.8;2.9;;;;;;;16.33;77.45313;95192.52;;;;
2020/06/28 01:55:20;;;;;;;3.8;2.9;;;;;;;16.33;77.45313;95192.52;;;;
2020/06/28 01:56:21;;;;;;;3.8;2.9;;;;;;;16.33;77.45313;95192.52;;;;
2020/06/28 01:57:24;;;;;;;3.8;2.9;;;;;;;16.33;77.45313;95192.52;;;;
2020/06/28 01:58:24;;;;;;;3.8;2.9;;;;;;;16.33;77.45313;95192.52;;;;
2020/06/28 01:59:25;;;;;;;3.8;2.9;;;;;;;16.33;77.45313;95192.52;;;;
2020/06/28 02:00:25;;;;;;;3.8;2.9;;;;;;;16.33;77.45313;95192.52;;;;
2020/06/28 02:01:27;;;;;;;3.8;2.9;;;;;;;16.33;77.45313;95192.52;;;;
2020/06/28 02:02:28;;;;;;;3.8;2.9;;;;;;;16.33;77.45313;95192.52;;;;
2020/06/28 02:03:28;;;;;;;3.8;2.9;;;;;;;16.33;77.45313;95192.52;;;;
2020/06/28 02:04:29;;;;;;;3.35;3.05;;;;;;;16.27;77.97266;95191.82;;;;
2020/06/28 02:05:29;;;;;;;3.35;3.05;;;;;;;16.27;77.97266;95191.82;;;;
2020/06/28 02:06:30;;;;;;;3.35;3.05;;;;;;;16.27;77.97266;95191.82;;;;
2020/06/28 02:07:31;;;;;;;3.35;3.05;;;;;;;16.27;77.97266;95191.82;;;;
2020/06/28 02:08:31;;;;;;;3.35;3.05;;;;;;;16.27;77.97266;95191.82;;;;
2020/06/28 02:09:31;;;;;;;3.35;3.05;;;;;;;16.27;77.97266;95191.82;;;;
2020/06/28 02:10:32;;;;;;;3.35;3.05;;;;;;;16.27;77.97266;95191.82;;;;
2020/06/28 02:11:33;;;;;;;3.35;3.05;;;;;;;16.27;77.97266;95191.82;;;;
2020/06/28 02:12:33;;;;;;;3.35;3.05;;;;;;;16.27;77.97266;95191.82;;;;
2020/06/28 02:13:34;;;;;;;3.35;3.05;;;;;;;16.27;77.97266;95191.82;;;;
2020/06/28 02:14:34;;;;;;;3.35;3.05;;;;;;;16.27;77.97266;95191.82;;;;
2020/06/28 02:15:35;;;;;;;4.1;3.2;;;;;;;16.12;78.42188;95191.43;;;;
2020/06/28 02:16:35;;;;;;;4.1;3.2;;;;;;;16.12;78.42188;95191.43;;;;
2020/06/28 02:17:36;;;;;;;4.1;3.2;;;;;;;16.12;78.42188;95191.43;;;;
2020/06/28 02:18:36;;;;;;;4.1;3.2;;;;;;;16.12;78.42188;95191.43;;;;
2020/06/28 02:19:37;;;;;;;4.1;3.2;;;;;;;16.12;78.42188;95191.43;;;;
2020/06/28 02:20:37;;;;;;;4.1;3.2;;;;;;;16.12;78.42188;95191.43;;;;
2020/06/28 02:21:38;;;;;;;4.1;3.2;;;;;;;16.12;78.42188;95191.43;;;;
2020/06/28 02:22:38;;;;;;;4.1;3.2;;;;;;;16.12;78.42188;95191.43;;;;
2020/06/28 02:23:39;;;;;;;4.1;3.2;;;;;;;16.12;78.42188;95191.43;;;;
2020/06/28 02:24:40;;;;;;;4.1;3.2;;;;;;;16.12;78.42188;95191.43;;;;
2020/06/28 02:25:40;;;;;;;4.300001;3.25;;;;;;;16.05;79.16602;95193.58;;;;
2020/06/28 02:26:41;;;;;;;4.300001;3.25;;;;;;;16.05;79.16602;95193.58;;;;
2020/06/28 02:27:41;;;;;;;4.300001;3.25;;;;;;;16.05;79.16602;95193.58;;;;
2020/06/28 02:28:42;;;;;;;4.300001;3.25;;;;;;;16.05;79.16602;95193.58;;;;
2020/06/28 02:29:42;;;;;;;4.300001;3.25;;;;;;;16.05;79.16602;95193.58;;;;
2020/06/28 02:30:43;;;;;;;4.300001;3.25;;;;;;;16.05;79.16602;95193.58;;;;
2020/06/28 02:31:43;;;;;;;4.300001;3.25;;;;;;;16.05;79.16602;95193.58;;;;
2020/06/28 02:32:44;;;;;;;4.300001;3.25;;;;;;;16.05;79.16602;95193.58;;;;
2020/06/28 02:33:45;;;;;;;4.300001;3.25;;;;;;;16.05;79.16602;95193.58;;;;
2020/06/28 02:34:45;;;;;;;4.300001;3.25;;;;;;;16.05;79.16602;95193.58;;;;
2020/06/28 02:35:46;;;;;;;4.300001;3.25;;;;;;;16.05;79.16602;95193.58;;;;
2020/06/28 02:36:46;;;;;;;4.85;3.15;;;;;;;15.92;79.6748;95191.41;;;;
2020/06/28 02:37:47;;;;;;;4.85;3.15;;;;;;;15.92;79.6748;95191.41;;;;
2020/06/28 02:38:48;;;;;;;4.85;3.15;;;;;;;15.92;79.6748;95191.41;;;;
2020/06/28 02:39:48;;;;;;;4.85;3.15;;;;;;;15.92;79.6748;95191.41;;;;
2020/06/28 02:40:49;;;;;;;4.85;3.15;;;;;;;15.92;79.6748;95191.41;;;;
2020/06/28 02:41:49;;;;;;;4.85;3.15;;;;;;;15.92;79.6748;95191.41;;;;
2020/06/28 02:42:50;;;;;;;4.85;3.15;;;;;;;15.92;79.6748;95191.41;;;;
2020/06/28 02:43:51;;;;;;;4.85;3.15;;;;;;;15.92;79.6748;95191.41;;;;
2020/06/28 02:44:51;;;;;;;4.85;3.15;;;;;;;15.92;79.6748;95191.41;;;;
2020/06/28 02:45:52;;;;;;;4.85;3.15;;;;;;;15.92;79.6748;95191.41;;;;
2020/06/28 02:46:52;;;;;;;3.45;3.15;;;;;;;15.91;80.45996;95192.49;;;;
2020/06/28 02:47:53;;;;;;;3.45;3.15;;;;;;;15.91;80.45996;95192.49;;;;
2020/06/28 02:48:54;;;;;;;3.45;3.15;;;;;;;15.91;80.45996;95192.49;;;;
2020/06/28 02:49:54;;;;;;;3.45;3.15;;;;;;;15.91;80.45996;95192.49;;;;
2020/06/28 02:50:55;;;;;;;3.45;3.15;;;;;;;15.91;80.45996;95192.49;;;;
2020/06/28 02:51:55;;;;;;;3.45;3.15;;;;;;;15.91;80.45996;95192.49;;;;
2020/06/28 02:52:56;;;;;;;3.45;3.15;;;;;;;15.91;80.45996;95192.49;;;;
2020/06/28 02:53:57;;;;;;;3.45;3.15;;;;;;;15.91;80.45996;95192.49;;;;
2020/06/28 02:54:57;;;;;;;3.45;3.15;;;;;;;15.91;80.45996;95192.49;;;;
2020/06/28 02:55:58;;;;;;;3.45;3.15;;;;;;;15.91;80.45996;95192.49;;;;
2020/06/28 02:56:58;;;;;;;3.45;3.15;;;;;;;15.91;80.45996;95192.49;;;;
2020/06/28 02:57:58;;;;;;;4;3.05;;;;;;;15.82;80.74902;95185.82;;;;
2020/06/28 02:58:59;;;;;;;4;3.05;;;;;;;15.82;80.74902;95185.82;;;;
2020/06/28 03:00:00;;;;;;;4;3.05;;;;;;;15.82;80.74902;95185.82;;;;
2020/06/28 03:01:00;;;;;;;4;3.05;;;;;;;15.82;80.74902;95185.82;;;;
2020/06/28 03:02:01;;;;;;;4;3.05;;;;;;;15.82;80.74902;95185.82;;;;
2020/06/28 03:03:01;;;;;;;4;3.05;;;;;;;15.82;80.74902;95185.82;;;;
2020/06/28 03:04:06;;;;;;;4;3.05;;;;;;;15.82;80.74902;95185.82;;;;
2020/06/28 03:05:07;;;;;;;4;3.05;;;;;;;15.82;80.74902;95185.82;;;;
2020/06/28 03:06:11;;;;;;;4;3.05;;;;;;;15.82;80.74902;95185.82;;;;
2020/06/28 03:07:11;;;;;;;4;3.05;;;;;;;15.82;80.74902;95185.82;;;;
2020/06/28 03:08:12;;;;;;;3.8;3.05;;;;;;;15.81;81.27539;95185.68;;;;
2020/06/28 03:09:13;;;;;;;3.8;3.05;;;;;;;15.81;81.27539;95185.68;;;;
2020/06/28 03:10:13;;;;;;;3.8;3.05;;;;;;;15.81;81.27539;95185.68;;;;
2020/06/28 03:11:14;;;;;;;3.8;3.05;;;;;;;15.81;81.27539;95185.68;;;;
2020/06/28 03:12:15;;;;;;;3.8;3.05;;;;;;;15.81;81.27539;95185.68;;;;
2020/06/28 03:13:15;;;;;;;3.8;3.05;;;;;;;15.81;81.27539;95185.68;;;;
2020/06/28 03:14:16;;;;;;;3.8;3.05;;;;;;;15.81;81.27539;95185.68;;;;
2020/06/28 03:15:16;;;;;;;3.8;3.05;;;;;;;15.81;81.27539;95185.68;;;;
2020/06/28 03:16:17;;;;;;;3.8;3.05;;;;;;;15.81;81.27539;95185.68;;;;
2020/06/28 03:17:18;;;;;;;3.8;3.05;;;;;;;15.81;81.27539;95185.68;;;;
2020/06/28 03:18:19;;;;;;;3.5;3.2;;;;;;;15.73;81.72461;95184.84;;;;
2020/06/28 03:19:19;;;;;;;3.5;3.2;;;;;;;15.73;81.72461;95184.84;;;;
2020/06/28 03:20:19;;;;;;;3.5;3.2;;;;;;;15.73;81.72461;95184.84;;;;
2020/06/28 03:21:22;;;;;;;3.5;3.2;;;;;;;15.73;81.72461;95184.84;;;;
2020/06/28 03:22:23;;;;;;;3.5;3.2;;;;;;;15.73;81.72461;95184.84;;;;
2020/06/28 03:23:23;;;;;;;3.5;3.2;;;;;;;15.73;81.72461;95184.84;;;;
2020/06/28 03:24:24;;;;;;;3.5;3.2;;;;;;;15.73;81.72461;95184.84;;;;
2020/06/28 03:25:25;;;;;;;3.5;3.2;;;;;;;15.73;81.72461;95184.84;;;;
2020/06/28 03:26:25;;;;;;;3.5;3.2;;;;;;;15.73;81.72461;95184.84;;;;
2020/06/28 03:27:26;;;;;;;3.5;3.2;;;;;;;15.73;81.72461;95184.84;;;;
2020/06/28 03:28:27;;;;;;;3.5;3.2;;;;;;;15.73;81.72461;95184.84;;;;
2020/06/28 03:29:27;;;;;;;3.6;3.3;;;;;;;15.77;82.23047;95173.69;;;;
2020/06/28 03:30:28;;;;;;;3.6;3.3;;;;;;;15.77;82.23047;95173.69;;;;
2020/06/28 03:31:28;;;;;;;3.6;3.3;;;;;;;15.77;82.23047;95173.69;;;;
2020/06/28 03:32:29;;;;;;;3.6;3.3;;;;;;;15.77;82.23047;95173.69;;;;
2020/06/28 03:33:30;;;;;;;3.6;3.3;;;;;;;15.77;82.23047;95173.69;;;;
2020/06/28 03:34:30;;;;;;;3.6;3.3;;;;;;;15.77;82.23047;95173.69;;;;
2020/06/28 03:35:31;;;;;;;3.6;3.3;;;;;;;15.77;82.23047;95173.69;;;;
2020/06/28 03:36:32;;;;;;;3.6;3.3;;;;;;;15.77;82.23047;95173.69;;;;
2020/06/28 03:37:34;;;;;;;3.6;3.3;;;;;;;15.77;82.23047;95173.69;;;;
2020/06/28 03:38:34;;;;;;;3.6;3.3;;;;;;;15.77;82.23047;95173.69;;;;
2020/06/28 03:39:35;;;;;;;4.350001;3.2;;;;;;;15.8;82.3457;95163.48;;;;
2020/06/28 03:40:35;;;;;;;4.350001;3.2;;;;;;;15.8;82.3457;95163.48;;;;
2020/06/28 03:41:36;;;;;;;4.350001;3.2;;;;;;;15.8;82.3457;95163.48;;;;
2020/06/28 03:42:43;;;;;;;4.350001;3.2;;;;;;;15.8;82.3457;95163.48;;;;
2020/06/28 03:43:46;;;;;;;4.350001;3.2;;;;;;;15.8;82.3457;95163.48;;;;
2020/06/28 03:44:48;;;;;;;4.350001;3.2;;;;;;;15.8;82.3457;95163.48;;;;
2020/06/28 03:45:49;;;;;;;4.350001;3.2;;;;;;;15.8;82.3457;95163.48;;;;
2020/06/28 03:46:50;;;;;;;4.350001;3.2;;;;;;;15.8;82.3457;95163.48;;;;
2020/06/28 03:47:50;;;;;;;4.350001;3.2;;;;;;;15.8;82.3457;95163.48;;;;
2020/06/28 03:48:52;;;;;;;4.350001;3.2;;;;;;;15.8;82.3457;95163.48;;;;
2020/06/28 03:49:53;;;;;;;4.350001;3.2;;;;;;;15.8;82.3457;95163.48;;;;
2020/06/28 03:50:53;;;;;;;3.85;3.2;;;;;;;15.95;82.55566;95153.15;;;;
2020/06/28 03:51:54;;;;;;;3.85;3.2;;;;;;;15.95;82.55566;95153.15;;;;
2020/06/28 03:52:55;;;;;;;3.85;3.2;;;;;;;15.95;82.55566;95153.15;;;;
2020/06/28 03:53:56;;;;;;;3.85;3.2;;;;;;;15.95;82.55566;95153.15;;;;
2020/06/28 03:54:56;;;;;;;3.85;3.2;;;;;;;15.95;82.55566;95153.15;;;;
2020/06/28 03:55:57;;;;;;;3.85;3.2;;;;;;;15.95;82.55566;95153.15;;;;
2020/06/28 03:56:57;;;;;;;3.85;3.2;;;;;;;15.95;82.55566;95153.15;;;;
2020/06/28 03:57:58;;;;;;;3.85;3.2;;;;;;;15.95;82.55566;95153.15;;;;
2020/06/28 03:58:58;;;;;;;3.85;3.2;;;;;;;15.95;82.55566;95153.15;;;;
2020/06/28 03:59:59;;;;;;;3.85;3.2;;;;;;;15.95;82.55566;95153.15;;;;
2020/06/28 04:01:01;;;;;;;4;3.15;;;;;;;16.06;82.63086;95143.48;;;;
2020/06/28 04:02:02;;;;;;;4;3.15;;;;;;;16.06;82.63086;95143.48;;;;
2020/06/28 04:03:03;;;;;;;4;3.15;;;;;;;16.06;82.63086;95143.48;;;;
2020/06/28 04:04:04;;;;;;;4;3.15;;;;;;;16.06;82.63086;95143.48;;;;
2020/06/28 04:05:08;;;;;;;4;3.15;;;;;;;16.06;82.63086;95143.48;;;;
2020/06/28 04:06:10;;;;;;;4;3.15;;;;;;;16.06;82.63086;95143.48;;;;
2020/06/28 04:07:10;;;;;;;4;3.15;;;;;;;16.06;82.63086;95143.48;;;;
2020/06/28 04:08:11;;;;;;;4;3.15;;;;;;;16.06;82.63086;95143.48;;;;
2020/06/28 04:09:12;;;;;;;4;3.15;;;;;;;16.06;82.63086;95143.48;;;;
2020/06/28 04:10:14;;;;;;;4;3.15;;;;;;;16.06;82.63086;95143.48;;;;
2020/06/28 04:11:15;;;;;;;4;3.15;;;;;;;16.06;82.63086;95143.48;;;;
2020/06/28 04:12:15;;;;;;;3.450001;3.15;;;;;;;16.25;82.64355;95154.49;;;;
2020/06/28 04:13:16;;;;;;;3.450001;3.15;;;;;;;16.25;82.64355;95154.49;;;;
2020/06/28 04:14:17;;;;;;;3.450001;3.15;;;;;;;16.25;82.64355;95154.49;;;;
2020/06/28 04:15:17;;;;;;;3.450001;3.15;;;;;;;16.25;82.64355;95154.49;;;;
2020/06/28 04:16:19;;;;;;;3.450001;3.15;;;;;;;16.25;82.64355;95154.49;;;;
2020/06/28 04:17:20;;;;;;;3.450001;3.15;;;;;;;16.25;82.64355;95154.49;;;;
2020/06/28 04:18:21;;;;;;;3.450001;3.15;;;;;;;16.25;82.64355;95154.49;;;;
2020/06/28 04:19:21;;;;;;;3.450001;3.15;;;;;;;16.25;82.64355;95154.49;;;;
2020/06/28 04:20:22;;;;;;;3.450001;3.15;;;;;;;16.25;82.64355;95154.49;;;;
2020/06/28 04:21:22;;;;;;;3.450001;3.15;;;;;;;16.25;82.64355;95154.49;;;;
2020/06/28 04:22:23;;;;;;;3.5;3.15;;;;;;;16.34;82.41309;95158.7;;;;
2020/06/28 04:23:24;;;;;;;3.5;3.15;;;;;;;16.34;82.41309;95158.7;;;;
2020/06/28 04:24:24;;;;;;;3.5;3.15;;;;;;;16.34;82.41309;95158.7;;;;
2020/06/28 04:25:25;;;;;;;3.5;3.15;;;;;;;16.34;82.41309;95158.7;;;;
2020/06/28 04:26:25;;;;;;;3.5;3.15;;;;;;;16.34;82.41309;95158.7;;;;
2020/06/28 04:27:26;;;;;;;3.5;3.15;;;;;;;16.34;82.41309;95158.7;;;;
2020/06/28 04:28:27;;;;;;;3.5;3.15;;;;;;;16.34;82.41309;95158.7;;;;
2020/06/28 04:29:28;;;;;;;3.5;3.15;;;;;;;16.34;82.41309;95158.7;;;;
2020/06/28 04:30:28;;;;;;;3.5;3.15;;;;;;;16.34;82.41309;95158.7;;;;
2020/06/28 04:31:29;;;;;;;3.5;3.15;;;;;;;16.34;82.41309;95158.7;;;;
2020/06/28 04:32:29;;;;;;;3.5;3.15;;;;;;;16.34;82.41309;95158.7;;;;
2020/06/28 04:33:30;;;;;;;3.7;3.3;;;;;;;16.49;82.41895;95168.27;;;;
2020/06/28 04:34:30;;;;;;;3.7;3.3;;;;;;;16.49;82.41895;95168.27;;;;
2020/06/28 04:35:31;;;;;;;3.7;3.3;;;;;;;16.49;82.41895;95168.27;;;;
2020/06/28 04:36:32;;;;;;;3.7;3.3;;;;;;;16.49;82.41895;95168.27;;;;
2020/06/28 04:37:32;;;;;;;3.7;3.3;;;;;;;16.49;82.41895;95168.27;;;;
2020/06/28 04:38:34;;;;;;;3.7;3.3;;;;;;;16.49;82.41895;95168.27;;;;
2020/06/28 04:39:37;;;;;;;3.7;3.3;;;;;;;16.49;82.41895;95168.27;;;;
2020/06/28 04:40:37;;;;;;;3.7;3.3;;;;;;;16.49;82.41895;95168.27;;;;
2020/06/28 04:41:38;;;;;;;3.7;3.3;;;;;;;16.49;82.41895;95168.27;;;;
2020/06/28 04:42:39;;;;;;;3.7;3.3;;;;;;;16.49;82.41895;95168.27;;;;
2020/06/28 04:43:39;;;;;;;3.900001;3.2;;;;;;;16.63;82.60742;95173.95;;;;
2020/06/28 04:44:40;;;;;;;3.900001;3.2;;;;;;;16.63;82.60742;95173.95;;;;
2020/06/28 04:45:41;;;;;;;3.900001;3.2;;;;;;;16.63;82.60742;95173.95;;;;
2020/06/28 04:46:41;;;;;;;3.900001;3.2;;;;;;;16.63;82.60742;95173.95;;;;
2020/06/28 04:47:42;;;;;;;3.900001;3.2;;;;;;;16.63;82.60742;95173.95;;;;
2020/06/28 04:48:43;;;;;;;3.900001;3.2;;;;;;;16.63;82.60742;95173.95;;;;
2020/06/28 04:49:43;;;;;;;3.900001;3.2;;;;;;;16.63;82.60742;95173.95;;;;
2020/06/28 04:50:44;;;;;;;3.900001;3.2;;;;;;;16.63;82.60742;95173.95;;;;
2020/06/28 04:51:44;;;;;;;3.900001;3.2;;;;;;;16.63;82.60742;95173.95;;;;
2020/06/28 04:52:45;;;;;;;3.900001;3.2;;;;;;;16.63;82.60742;95173.95;;;;
2020/06/28 04:53:46;;;;;;;3.900001;3.2;;;;;;;16.63;82.60742;95173.95;;;;
2020/06/28 04:54:46;;;;;;;5.05;3.15;;;;;;;16.92;82.28125;95171.83;;;;
2020/06/28 04:55:47;;;;;;;5.05;3.15;;;;;;;16.92;82.28125;95171.83;;;;
2020/06/28 04:56:47;;;;;;;5.05;3.15;;;;;;;16.92;82.28125;95171.83;;;;
2020/06/28 04:57:48;;;;;;;5.05;3.15;;;;;;;16.92;82.28125;95171.83;;;;
2020/06/28 04:58:49;;;;;;;5.05;3.15;;;;;;;16.92;82.28125;95171.83;;;;
2020/06/28 04:59:51;;;;;;;5.05;3.15;;;;;;;16.92;82.28125;95171.83;;;;
2020/06/28 05:00:52;;;;;;;5.05;3.15;;;;;;;16.92;82.28125;95171.83;;;;
2020/06/28 05:01:52;;;;;;;5.05;3.15;;;;;;;16.92;82.28125;95171.83;;;;
2020/06/28 05:02:54;;;;;;;5.05;3.15;;;;;;;16.92;82.28125;95171.83;;;;
2020/06/28 05:03:58;;;;;;;5.05;3.15;;;;;;;16.92;82.28125;95171.83;;;;
2020/06/28 05:05:01;;;;;;;3.65;3.25;;;;;;;17.21;81.89258;95177.7;;;;
2020/06/28 05:06:04;;;;;;;3.65;3.25;;;;;;;17.21;81.89258;95177.7;;;;
2020/06/28 05:07:09;;;;;;;3.65;3.25;;;;;;;17.21;81.89258;95177.7;;;;
2020/06/28 05:08:09;;;;;;;3.65;3.25;;;;;;;17.21;81.89258;95177.7;;;;
2020/06/28 05:09:10;;;;;;;3.65;3.25;;;;;;;17.21;81.89258;95177.7;;;;
2020/06/28 05:10:11;;;;;;;3.65;3.25;;;;;;;17.21;81.89258;95177.7;;;;
2020/06/28 05:11:12;;;;;;;3.65;3.25;;;;;;;17.21;81.89258;95177.7;;;;
2020/06/28 05:12:12;;;;;;;3.65;3.25;;;;;;;17.21;81.89258;95177.7;;;;
2020/06/28 05:13:12;;;;;;;3.65;3.25;;;;;;;17.21;81.89258;95177.7;;;;
2020/06/28 05:14:13;;;;;;;3.65;3.25;;;;;;;17.21;81.89258;95177.7;;;;
2020/06/28 05:15:13;;;;;;;3.8;2.95;;;;;;;17.63;81.36133;95191.86;;;;
2020/06/28 05:16:14;;;;;;;3.8;2.95;;;;;;;17.63;81.36133;95191.86;;;;
2020/06/28 05:17:15;;;;;;;3.8;2.95;;;;;;;17.63;81.36133;95191.86;;;;
2020/06/28 05:18:16;;;;;;;3.8;2.95;;;;;;;17.63;81.36133;95191.86;;;;
2020/06/28 05:19:17;;;;;;;3.8;2.95;;;;;;;17.63;81.36133;95191.86;;;;
2020/06/28 05:20:17;;;;;;;3.8;2.95;;;;;;;17.63;81.36133;95191.86;;;;
2020/06/28 05:21:18;;;;;;;3.8;2.95;;;;;;;17.63;81.36133;95191.86;;;;
2020/06/28 05:22:19;;;;;;;3.8;2.95;;;;;;;17.63;81.36133;95191.86;;;;
2020/06/28 05:23:19;;;;;;;3.8;2.95;;;;;;;17.63;81.36133;95191.86;;;;
2020/06/28 05:24:20;;;;;;;3.8;2.95;;;;;;;17.63;81.36133;95191.86;;;;
2020/06/28 05:25:20;;;;;;;3.8;2.95;;;;;;;17.63;81.36133;95191.86;;;;
2020/06/28 05:26:21;;;;;;;5.550001;3.35;;;;;;;18.01;80.8877;95196.12;;;;
2020/06/28 05:27:21;;;;;;;5.550001;3.35;;;;;;;18.01;80.8877;95196.12;;;;
2020/06/28 05:28:22;;;;;;;5.550001;3.35;;;;;;;18.01;80.8877;95196.12;;;;
2020/06/28 05:29:22;;;;;;;5.550001;3.35;;;;;;;18.01;80.8877;95196.12;;;;
2020/06/28 05:30:23;;;;;;;5.550001;3.35;;;;;;;18.01;80.8877;95196.12;;;;
2020/06/28 05:31:24;;;;;;;5.550001;3.35;;;;;;;18.01;80.8877;95196.12;;;;
2020/06/28 05:32:24;;;;;;;5.550001;3.35;;;;;;;18.01;80.8877;95196.12;;;;
2020/06/28 05:33:25;;;;;;;5.550001;3.35;;;;;;;18.01;80.8877;95196.12;;;;
2020/06/28 05:34:25;;;;;;;5.550001;3.35;;;;;;;18.01;80.8877;95196.12;;;;
2020/06/28 05:35:26;;;;;;;5.550001;3.35;;;;;;;18.01;80.8877;95196.12;;;;
2020/06/28 05:36:26;;;;;;;3.5;3.2;;;;;;;18.46;80.12012;95204.57;;;;
2020/06/28 05:37:27;;;;;;;3.5;3.2;;;;;;;18.46;80.12012;95204.57;;;;
2020/06/28 05:38:28;;;;;;;3.5;3.2;;;;;;;18.46;80.12012;95204.57;;;;
2020/06/28 05:39:28;;;;;;;3.5;3.2;;;;;;;18.46;80.12012;95204.57;;;;
2020/06/28 05:40:29;;;;;;;3.5;3.2;;;;;;;18.46;80.12012;95204.57;;;;
2020/06/28 05:41:29;;;;;;;3.5;3.2;;;;;;;18.46;80.12012;95204.57;;;;
2020/06/28 05:42:30;;;;;;;3.5;3.2;;;;;;;18.46;80.12012;95204.57;;;;
2020/06/28 05:43:31;;;;;;;3.5;3.2;;;;;;;18.46;80.12012;95204.57;;;;
2020/06/28 05:44:32;;;;;;;3.5;3.2;;;;;;;18.46;80.12012;95204.57;;;;
2020/06/28 05:45:33;;;;;;;3.5;3.2;;;;;;;18.46;80.12012;95204.57;;;;
2020/06/28 05:46:33;;;;;;;3.5;3.2;;;;;;;18.46;80.12012;95204.57;;;;
2020/06/28 05:47:34;;;;;;;3.7;3.3;;;;;;;18.84;79.58008;95193.52;;;;
2020/06/28 05:48:34;;;;;;;3.7;3.3;;;;;;;18.84;79.58008;95193.52;;;;
2020/06/28 05:49:35;;;;;;;3.7;3.3;;;;;;;18.84;79.58008;95193.52;;;;